Time;durP1;ratioP1;P1;durP2;ratioP2;P2;SDS_P1;SDS_P2;PMS_P1;PMS_P2;Temp;Humidity;BMP_temperature;BMP_pressure;BME280_temperature;BME280_humidity;BME280_pressure;Samples;Min_cycle;Max_cycle;Signal;HPM_P1;HPM_P2
2021/04/06 00:02:24;;;;;;;12.43;7.75;;;256.40;1561.60;;;;;;4809286;29;20118;-74
2021/04/06 00:04:52;;;;;;;10.88;7.22;;;256.30;1561.60;;;;;;4821004;29;20034;-78
2021/04/06 00:07:20;;;;;;;10.27;6.88;;;256.30;1561.60;;;;;;4805189;29;20045;-75
2021/04/06 00:09:55;;;;;;;11.32;7.25;;;281.80;1587.20;;;;;;4818134;29;20086;-77
2021/04/06 00:12:23;;;;;;;10.18;6.78;;;256.40;1536.00;;;;;;4824622;29;20504;-78
2021/04/06 00:14:51;;;;;;;12.02;6.85;;;256.40;1510.40;;;;;;4822627;29;20068;-75
2021/04/06 00:17:18;;;;;;;11.10;6.70;;;256.40;1510.40;;;;;;4825824;29;20037;-76
2021/04/06 00:19:46;;;;;;;9.45;6.20;;;256.50;1484.80;;;;;;4818178;29;20046;-77
2021/04/06 00:22:15;;;;;;;8.77;6.05;;;256.50;1484.80;;;;;;4818676;29;20034;-75
2021/04/06 00:24:45;;;;;;;10.48;6.78;;;256.50;1459.20;;;;;;4814880;29;20027;-75
2021/04/06 00:27:18;;;;;;;11.07;6.78;;;256.50;1459.20;;;;;;4821523;29;20027;-75
2021/04/06 00:29:52;;;;;;;10.20;6.75;;;256.50;1459.20;;;;;;4821724;29;20042;-75
2021/04/06 00:32:19;;;;;;;;;;;256.50;1459.20;;;;;;4821365;29;20065;-74
2021/04/06 00:34:46;;;;;;;9.45;6.30;;;256.50;1459.20;;;;;;4815488;29;19915;-76
2021/04/06 00:37:16;;;;;;;9.95;6.90;;;256.50;1459.20;;;;;;4824485;29;20030;-76
2021/04/06 00:39:43;;;;;;;10.07;6.63;;;256.40;1459.20;;;;;;4814343;29;20043;-75
2021/04/06 00:42:12;;;;;;;11.93;6.30;;;256.50;1433.60;;;;;;4823279;29;20130;-75
2021/04/06 00:44:47;;;;;;;9.23;6.13;;;256.50;1459.20;;;;;;4824619;29;20023;-75
2021/04/06 00:47:14;;;;;;;10.32;6.30;;;256.50;1459.20;;;;;;4816795;29;20399;-75
2021/04/06 00:49:42;;;;;;;10.02;6.53;;;256.50;1433.60;;;;;;4822088;29;20062;-75
2021/04/06 00:52:08;;;;;;;12.23;6.53;;;256.50;1433.60;;;;;;4824231;29;20042;-76
2021/04/06 00:54:37;;;;;;;9.50;6.15;;;256.50;1459.20;;;;;;4822629;29;20109;-76
2021/04/06 00:57:06;;;;;;;10.95;6.50;;;256.50;1433.60;;;;;;4824841;29;20027;-76
2021/04/06 00:59:33;;;;;;;10.27;6.28;;;230.80;1459.20;;;;;;4812785;29;20051;-76
2021/04/06 01:02:04;;;;;;;11.38;7.32;;;256.50;1433.60;;;;;;4821474;29;20031;-75
2021/04/06 01:04:36;;;;;;;9.32;6.72;;;256.50;1459.20;;;;;;4819784;29;20534;-79
2021/04/06 01:07:12;;;;;;;10.52;6.75;;;256.50;1459.20;;;;;;4818439;29;20084;-78
2021/04/06 01:09:47;;;;;;;10.88;6.45;;;256.50;1433.60;;;;;;4821481;29;20026;-76
2021/04/06 01:12:19;;;;;;;10.75;6.90;;;256.50;1433.60;;;;;;4825274;29;20058;-78
2021/04/06 01:14:47;;;;;;;12.45;7.10;;;256.50;1433.60;;;;;;4828166;29;20109;-77
2021/04/06 01:17:18;;;;;;;12.38;7.05;;;256.50;1433.60;;;;;;4825384;29;20022;-79
2021/04/06 01:19:45;;;;;;;24.60;17.00;;;256.50;1433.60;;;;;;4813996;29;20043;-77
2021/04/06 01:22:14;;;;;;;20.27;12.52;;;256.50;1433.60;;;;;;4810448;29;20047;-76
2021/04/06 01:24:40;;;;;;;12.70;7.82;;;256.50;1433.60;;;;;;4807299;29;20098;-75
2021/04/06 01:27:13;;;;;;;10.48;6.80;;;256.50;1408.00;;;;;;4822514;29;20113;-78
2021/04/06 01:29:39;;;;;;;13.05;7.22;;;256.50;1408.00;;;;;;4823262;29;20026;-75
2021/04/06 01:32:06;;;;;;;9.35;6.35;;;256.40;1408.00;;;;;;4822086;29;20608;-76
2021/04/06 01:34:33;;;;;;;9.52;6.07;;;256.50;1408.00;;;;;;4823180;29;20039;-75
2021/04/06 01:36:59;;;;;;;11.50;6.72;;;256.40;1408.00;;;;;;4823549;29;20026;-75
2021/04/06 01:39:29;;;;;;;10.00;6.43;;;256.40;1408.00;;;;;;4815489;29;20086;-75
2021/04/06 01:42:07;;;;;;;9.00;5.80;;;256.40;1408.00;;;;;;4814257;29;20034;-77
2021/04/06 01:44:35;;;;;;;8.93;5.97;;;256.40;1408.00;;;;;;4807935;29;20559;-78
2021/04/06 01:47:02;;;;;;;10.98;6.40;;;256.40;1408.00;;;;;;4812531;29;20026;-79
2021/04/06 01:49:28;;;;;;;8.20;6.07;;;256.30;1408.00;;;;;;4820154;29;20061;-75
2021/04/06 01:51:58;;;;;;;9.85;6.35;;;256.30;1408.00;;;;;;4824845;29;20083;-79
2021/04/06 01:54:26;;;;;;;9.60;6.00;;;256.30;1408.00;;;;;;4813199;29;20031;-79
2021/04/06 01:56:59;;;;;;;9.02;5.90;;;256.30;1408.00;;;;;;4823561;29;20023;-76
2021/04/06 01:59:39;;;;;;;;;;;256.30;1382.40;;;;;;4819535;29;20045;-79
2021/04/06 02:02:08;;;;;;;9.48;5.75;;;256.30;1382.40;;;;;;4818696;29;19913;-75
2021/04/06 02:04:34;;;;;;;9.18;5.70;;;256.20;1382.40;;;;;;4820650;29;20105;-78
2021/04/06 02:07:01;;;;;;;9.80;5.55;;;256.30;1382.40;;;;;;4804365;29;20126;-75
2021/04/06 02:09:27;;;;;;;9.98;5.47;;;256.30;1382.40;;;;;;4811422;29;20027;-76
2021/04/06 02:11:53;;;;;;;9.15;5.57;;;256.30;1356.80;;;;;;4824245;29;20443;-75
2021/04/06 02:14:21;;;;;;;7.00;5.00;;;256.30;1356.80;;;;;;4824170;29;20026;-75
2021/04/06 02:17:01;;;;;;;7.63;4.97;;;256.30;1356.80;;;;;;4816015;29;20039;-76
2021/04/06 02:19:27;;;;;;;9.80;4.95;;;256.30;1331.20;;;;;;4808024;29;20051;-77
2021/04/06 02:21:55;;;;;;;7.10;4.95;;;256.30;1331.20;;;;;;4804952;29;20118;-75
2021/04/06 02:24:26;;;;;;;10.40;5.22;;;256.30;1331.20;;;;;;4811776;29;20488;-76
2021/04/06 02:27:05;;;;;;;7.60;4.93;;;256.40;1331.20;;;;;;4823102;29;20114;-75
2021/04/06 02:29:36;;;;;;;8.05;5.05;;;256.30;1331.20;;;;;;4810053;29;20025;-75
2021/04/06 02:32:06;;;;;;;8.90;5.20;;;256.40;1331.20;;;;;;4812260;29;20026;-75
2021/04/06 02:34:41;;;;;;;7.40;5.07;;;256.30;1331.20;;;;;;4821828;29;20031;-76
2021/04/06 02:37:22;;;;;;;6.25;4.55;;;256.30;1331.20;;;;;;4824518;29;20023;-75
2021/04/06 02:39:55;;;;;;;7.68;4.80;;;256.30;1305.60;;;;;;4818642;29;20573;-76
2021/04/06 02:42:25;;;;;;;8.18;4.60;;;256.30;1331.20;;;;;;4822622;29;20068;-79
2021/04/06 02:45:10;;;;;;;8.48;4.97;;;256.40;1331.20;;;;;;4823906;29;20030;-77
2021/04/06 02:47:42;;;;;;;7.03;4.47;;;256.40;1331.20;;;;;;4807604;29;20054;-76
2021/04/06 02:50:16;;;;;;;5.88;4.20;;;256.40;1331.20;;;;;;4821242;29;20544;-76
2021/04/06 02:52:42;;;;;;;9.60;4.55;;;256.50;1356.80;;;;;;4818927;29;20081;-78
2021/04/06 02:55:10;;;;;;;7.43;4.80;;;256.50;1331.20;;;;;;4814422;29;20446;-75
2021/04/06 02:57:42;;;;;;;10.68;5.30;;;256.50;1356.80;;;;;;4827845;29;20015;-76
2021/04/06 03:00:09;;;;;;;7.47;4.95;;;256.50;1356.80;;;;;;4825743;29;20042;-79
2021/04/06 03:02:40;;;;;;;9.30;5.85;;;256.50;1356.80;;;;;;4808552;29;20042;-75
2021/04/06 03:05:06;;;;;;;9.05;5.82;;;256.50;1356.80;;;;;;4821261;29;20035;-75
2021/04/06 03:07:32;;;;;;;9.15;6.13;;;256.50;1356.80;;;;;;4817264;29;20082;-79
2021/04/06 03:09:59;;;;;;;11.25;5.95;;;256.50;1356.80;;;;;;4810163;29;20133;-75
2021/04/06 03:12:32;;;;;;;9.63;5.95;;;256.50;1382.40;;;;;;4815473;29;20054;-77
2021/04/06 03:14:59;;;;;;;8.07;5.40;;;256.50;1356.80;;;;;;4827055;29;20079;-75
2021/04/06 03:17:26;;;;;;;8.85;5.18;;;256.70;1356.80;;;;;;4826397;29;20121;-76
2021/04/06 03:19:56;;;;;;;8.48;5.00;;;256.50;1356.80;;;;;;4825469;29;20050;-76
2021/04/06 03:22:25;;;;;;;8.38;4.95;;;;;;;;;;4813517;29;20030;-76
2021/04/06 03:24:51;;;;;;;7.85;5.30;;;;;;;;;;4824143;29;20073;-77
2021/04/06 03:27:26;;;;;;;8.40;4.90;;;;;;;;;;4821864;29;20044;-76
2021/04/06 03:29:52;;;;;;;10.43;5.13;;;;;;;;;;4813668;29;20044;-75
2021/04/06 03:32:18;;;;;;;8.88;4.72;;;;;;;;;;4823911;29;20077;-76
2021/04/06 03:34:45;;;;;;;12.00;4.88;;;;;;;;;;4810834;29;20039;-79
2021/04/06 03:37:11;;;;;;;8.10;4.65;;;;;;;;;;4817947;29;20037;-76
2021/04/06 03:39:37;;;;;;;11.32;5.05;;;;;;;;;;4827520;29;20504;-80
2021/04/06 03:42:04;;;;;;;9.90;5.45;;;256.50;1382.40;;;;;;4830181;29;20041;-75
2021/04/06 03:44:31;;;;;;;9.93;5.63;;;256.40;1356.80;;;;;;4825894;29;20548;-77
2021/04/06 03:47:03;;;;;;;11.90;6.40;;;256.30;1382.40;;;;;;4825085;29;20500;-76
2021/04/06 03:49:32;;;;;;;12.40;8.23;;;256.30;1382.40;;;;;;4825577;29;20058;-76
2021/04/06 03:52:08;;;;;;;14.80;7.30;;;256.20;1382.40;;;;;;4818276;29;20049;-76
2021/04/06 03:54:47;;;;;;;16.52;7.43;;;256.20;1408.00;;;;;;4824059;29;20508;-75
2021/04/06 04:00:09;;;;;;;19.70;7.50;;;256.20;1433.60;;;;;;4819547;29;20095;-77
2021/04/06 04:02:35;;;;;;;15.40;7.20;;;256.10;1433.60;;;;;;4813536;29;20026;-76
2021/04/06 04:05:01;;;;;;;13.43;7.47;;;256.10;1459.20;;;;;;4823209;29;20030;-77
2021/04/06 04:07:27;;;;;;;15.05;7.50;;;256.10;1459.20;;;;;;4810286;29;20499;-75
2021/04/06 04:09:53;;;;;;;19.38;7.90;;;256.10;1459.20;;;;;;4820891;29;20137;-79
2021/04/06 04:12:19;;;;;;;13.98;8.07;;;256.10;1484.80;;;;;;4823472;29;20027;-76
2021/04/06 04:14:45;;;;;;;14.02;7.63;;;256.10;1484.80;;;;;;4823609;29;20034;-75
2021/04/06 04:17:11;;;;;;;13.82;7.57;;;256.10;1484.80;;;;;;4812074;29;20023;-76
2021/04/06 04:19:37;;;;;;;13.20;7.40;;;256.10;1484.80;;;;;;4818421;29;20568;-75
2021/04/06 04:22:04;;;;;;;19.90;8.60;;;256.10;1510.40;;;;;;4820271;29;20117;-76
2021/04/06 04:24:30;;;;;;;19.40;8.75;;;256.10;1510.40;;;;;;4818288;29;20030;-75
2021/04/06 04:26:55;;;;;;;15.25;7.47;;;256.10;1536.00;;;;;;4824979;29;20022;-76
2021/04/06 04:29:21;;;;;;;14.45;7.13;;;256.10;1536.00;;;;;;4822768;29;20127;-76
2021/04/06 04:31:49;;;;;;;13.13;6.90;;;256.10;1510.40;;;;;;4821821;29;20124;-76
2021/04/06 04:34:15;;;;;;;9.68;6.50;;;256.10;1484.80;;;;;;4825614;29;20060;-78
2021/04/06 04:36:41;;;;;;;12.10;6.82;;;256.10;1510.40;;;;;;4821874;29;20365;-78
2021/04/06 04:39:07;;;;;;;11.35;6.07;;;256.00;1484.80;;;;;;4820134;29;20393;-78
2021/04/06 04:41:33;;;;;;;12.88;6.78;;;256.10;1484.80;;;;;;4818731;29;20023;-76
2021/04/06 04:43:59;;;;;;;12.73;7.45;;;256.00;1484.80;;;;;;4817001;29;20050;-75
2021/04/06 04:46:25;;;;;;;12.80;8.13;;;231.30;1561.60;;;;;;4814149;29;20027;-75
2021/04/06 04:48:50;;;;;;;12.00;6.68;;;231.30;1561.60;;;;;;4825818;29;20387;-72
2021/04/06 04:51:16;;;;;;;14.10;6.57;;;231.10;1459.20;;;;;;4828679;29;20087;-75
2021/04/06 04:53:42;;;;;;;17.05;7.47;;;231.10;1484.80;;;;;;4824578;29;20046;-76
2021/04/06 04:56:07;;;;;;;18.10;7.10;;;231.00;1484.80;;;;;;4825476;29;20041;-79
2021/04/06 04:58:33;;;;;;;10.98;6.43;;;231.10;1510.40;;;;;;4826660;29;20042;-74
2021/04/06 05:00:59;;;;;;;11.38;7.28;;;231.10;1484.80;;;;;;4810808;29;20034;-71
2021/04/06 05:03:25;;;;;;;12.15;7.25;;;231.00;1510.40;;;;;;4818781;29;20040;-74
2021/04/06 05:05:50;;;;;;;11.30;6.88;;;231.00;1561.60;;;;;;4820819;29;20038;-69
2021/04/06 05:08:16;;;;;;;10.85;6.70;;;231.10;1587.20;;;;;;4819219;29;20019;-69
2021/04/06 05:10:42;;;;;;;11.45;7.38;;;231.00;1638.40;;;;;;4817553;29;20088;-75
2021/04/06 05:13:09;;;;;;;15.30;7.72;;;231.00;1664.00;;;;;;4817250;29;20045;-72
2021/04/06 05:15:35;;;;;;;18.85;8.10;;;230.80;1740.80;;;;;;4809219;29;20079;-73
2021/04/06 05:18:01;;;;;;;13.90;7.40;;;;;;;;;;4815939;29;20039;-73
2021/04/06 05:20:27;;;;;;;22.65;6.97;;;205.70;1920.00;;;;;;4827541;29;20038;-72
2021/04/06 05:22:52;;;;;;;14.27;5.88;;;205.70;1971.20;;;;;;4829854;29;20496;-71
2021/04/06 05:25:18;;;;;;;18.95;5.50;;;205.00;2099.20;;;;;;4821543;29;20081;-73
2021/04/06 05:27:44;;;;;;;17.20;4.82;;;180.10;2201.60;;;;;;4812782;29;20023;-71
2021/04/06 05:30:10;;;;;;;21.60;4.78;;;180.00;2252.80;;;;;;4816582;29;25063;-73
2021/04/06 05:32:36;;;;;;;15.25;3.75;;;179.60;2252.80;;;;;;4821968;29;20155;-68
2021/04/06 05:35:04;;;;;;;18.75;3.05;;;179.40;2252.80;;;;;;4822110;29;20109;-76
2021/04/06 05:37:29;;;;;;;15.63;3.00;;;179.30;2252.80;;;;;;4813706;29;20027;-75
2021/04/06 05:39:55;;;;;;;15.38;2.70;;;179.20;2252.80;;;;;;4805621;29;20082;-79
2021/04/06 05:42:27;;;;;;;11.77;2.70;;;179.40;2252.80;;;;;;4840354;29;20026;-75
2021/04/06 05:44:54;;;;;;;13.70;3.00;;;154.50;2252.80;;;;;;4836212;29;20042;-76
2021/04/06 05:47:30;;;;;;;8.15;2.55;;;154.40;2252.80;;;;;;4806546;29;20064;-76
2021/04/06 05:49:56;;;;;;;14.27;2.95;;;154.40;2252.80;;;;;;4824041;29;20054;-77
2021/04/06 05:52:23;;;;;;;10.93;2.65;;;154.20;2252.80;;;;;;4814845;29;20031;-78
2021/04/06 05:54:48;;;;;;;11.57;2.60;;;154.40;2252.80;;;;;;4827142;29;20066;-71
2021/04/06 05:57:14;;;;;;;9.70;2.83;;;154.50;2252.80;;;;;;4824601;29;20485;-78
2021/04/06 05:59:40;;;;;;;10.20;2.83;;;154.50;2252.80;;;;;;4823458;29;20458;-75
2021/04/06 06:02:10;;;;;;;8.10;2.30;;;179.20;2252.80;;;;;;4820589;29;20027;-72
2021/04/06 06:04:36;;;;;;;12.75;2.85;;;179.20;2252.80;;;;;;4826277;29;20548;-78
2021/04/06 06:07:05;;;;;;;11.07;2.80;;;154.50;2252.80;;;;;;4838152;29;20011;-79
2021/04/06 06:09:35;;;;;;;5.80;2.40;;;154.40;2252.80;;;;;;4828377;29;20025;-78
2021/04/06 06:12:09;;;;;;;7.60;2.45;;;154.20;2252.80;;;;;;4823045;29;20026;-72
2021/04/06 06:14:40;;;;;;;10.80;2.90;;;154.30;2252.80;;;;;;4815414;29;20034;-79
2021/04/06 06:17:26;;;;;;;7.72;2.58;;;154.50;2252.80;;;;;;4816949;29;20022;-73
2021/04/06 06:19:59;;;;;;;11.48;3.00;;;154.40;2252.80;;;;;;4811696;29;20046;-69
2021/04/06 06:22:26;;;;;;;9.73;3.27;;;179.20;2252.80;;;;;;4826149;29;20026;-72
2021/04/06 06:25:13;;;;;;;9.25;2.80;;;179.30;2252.80;;;;;;4812569;29;20271;-74
2021/04/06 06:27:47;;;;;;;4.65;3.15;;;154.40;2252.80;;;;;;4835823;29;20038;-74
2021/04/06 06:30:35;;;;;;;11.73;2.65;;;154.40;2252.80;;;;;;4824228;29;20023;-75
2021/04/06 06:33:25;;;;;;;5.60;3.83;;;154.10;2252.80;;;;;;4832220;29;20033;-75
2021/04/06 06:36:05;;;;;;;9.77;3.17;;;154.10;2252.80;;;;;;4822187;29;20026;-70
2021/04/06 06:38:39;;;;;;;12.57;6.47;;;153.70;2252.80;;;;;;4826306;29;20060;-71
2021/04/06 06:41:13;;;;;;;15.35;5.30;;;128.80;2252.80;;;;;;4814134;29;20409;-71
2021/04/06 06:43:41;;;;;;;13.60;7.97;;;153.60;2252.80;;;;;;4829416;29;20026;-78
2021/04/06 06:46:37;;;;;;;9.95;5.03;;;153.70;2252.80;;;;;;4827481;29;20030;-77
2021/04/06 06:49:06;;;;;;;15.88;7.03;;;153.80;2252.80;;;;;;4774553;30;20032;-77
2021/04/06 06:51:37;;;;;;;14.57;5.85;;;153.80;2252.80;;;;;;4771632;30;20051;-77
2021/04/06 06:54:42;;;;;;;12.38;5.70;;;153.80;2252.80;;;;;;4790146;30;20553;-78
2021/04/06 06:57:10;;;;;;;20.52;6.85;;;153.90;2252.80;;;;;;4792418;30;20024;-77
2021/04/06 07:02:50;;;;;;;8.38;4.53;;;153.80;2252.80;;;;;;4744228;30;20867;-72
2021/04/06 07:05:29;;;;;;;11.45;5.22;;;153.60;2252.80;;;;;;4743902;30;20021;-72
2021/04/06 07:08:03;;;;;;;4.22;2.90;;;153.70;2252.80;;;;;;4747999;30;20080;-72
2021/04/06 07:10:38;;;;;;;4.28;2.78;;;128.90;2252.80;;;;;;4745906;30;20512;-76
2021/04/06 07:13:06;;;;;;;4.40;2.80;;;128.80;2252.80;;;;;;4746144;30;20051;-72
2021/04/06 07:15:34;;;;;;;8.65;3.25;;;128.40;2252.80;;;;;;4735252;30;20059;-72
2021/04/06 07:18:18;;;;;;;8.05;2.70;;;128.30;2252.80;;;;;;4747513;30;20019;-73
2021/04/06 07:20:58;;;;;;;4.90;2.65;;;128.30;2252.80;;;;;;4749512;30;20063;-79
2021/04/06 07:23:37;;;;;;;4.53;2.67;;;;;;;;;;4739113;30;20115;-79
2021/04/06 07:26:04;;;;;;;6.38;2.70;;;;;;;;;;4752242;30;20048;-78
2021/04/06 07:28:31;;;;;;;5.68;2.67;;;;;;;;;;4772898;30;20063;-80
2021/04/06 07:30:59;;;;;;;5.22;2.80;;;;;;;;;;4760838;30;20384;-80
2021/04/06 07:33:26;;;;;;;5.95;2.90;;;;;;;;;;4781122;30;20064;-80
2021/04/06 07:35:52;;;;;;;10.10;4.47;;;128.50;2252.80;;;;;;4762542;30;20043;-79
2021/04/06 07:38:18;;;;;;;10.30;3.90;;;128.20;2252.80;;;;;;4761016;30;20101;-78
2021/04/06 07:40:45;;;;;;;5.53;3.35;;;128.30;2252.80;;;;;;4826804;29;20054;-77
2021/04/06 07:43:31;;;;;;;7.43;3.70;;;128.60;2252.80;;;;;;4834444;29;20006;-76
2021/04/06 07:45:57;;;;;;;7.78;3.85;;;128.40;2252.80;;;;;;4823073;29;20064;-77
2021/04/06 07:48:58;;;;;;;7.25;3.47;;;128.10;2252.80;;;;;;4830163;29;20051;-73
2021/04/06 07:51:27;;;;;;;6.85;3.05;;;128.10;2252.80;;;;;;4836874;29;20053;-72
2021/04/06 07:54:06;;;;;;;5.63;2.70;;;128.40;2252.80;;;;;;4828033;29;20056;-73
2021/04/06 07:56:44;;;;;;;7.85;3.00;;;128.70;2252.80;;;;;;4821587;29;20098;-72
2021/04/06 07:59:30;;;;;;;9.27;3.63;;;128.90;2227.20;;;;;;4839223;29;20039;-72
2021/04/06 08:02:00;;;;;;;6.03;3.38;;;128.70;2150.40;;;;;;4826043;29;20058;-73
2021/04/06 08:04:26;;;;;;;9.55;4.65;;;128.50;2201.60;;;;;;4840491;29;20070;-73
2021/04/06 08:07:02;;;;;;;14.32;6.07;;;128.60;2227.20;;;;;;4823747;29;20043;-73
2021/04/06 08:09:43;;;;;;;8.90;4.15;;;128.80;2201.60;;;;;;4832729;29;20477;-74
2021/04/06 08:12:25;;;;;;;11.13;3.40;;;128.90;2201.60;;;;;;4837034;29;20038;-78
2021/04/06 08:15:11;;;;;;;7.20;3.30;;;128.90;2176.00;;;;;;4824699;29;20019;-78
2021/04/06 08:17:59;;;;;;;4.95;3.10;;;153.60;2176.00;;;;;;4814507;29;20522;-70
2021/04/06 08:20:44;;;;;;;6.15;3.13;;;153.60;2176.00;;;;;;4812265;29;20126;-75
2021/04/06 08:23:33;;;;;;;7.53;3.00;;;128.90;2150.40;;;;;;4818696;29;20087;-73
2021/04/06 08:25:59;;;;;;;6.28;3.00;;;153.60;2150.40;;;;;;4825760;29;20022;-75
2021/04/06 08:28:29;;;;;;;6.57;3.42;;;128.80;2176.00;;;;;;4822290;29;20035;-78
2021/04/06 08:31:24;;;;;;;8.25;3.80;;;128.70;2227.20;;;;;;4825217;29;20030;-72
2021/04/06 08:33:51;;;;;;;11.60;4.72;;;128.60;2201.60;;;;;;4830550;29;20038;-74
2021/04/06 08:36:27;;;;;;;18.92;4.00;;;128.60;2176.00;;;;;;4816566;29;25056;-72
2021/04/06 08:38:55;;;;;;;10.68;5.40;;;128.70;2099.20;;;;;;4819103;29;20459;-72
2021/04/06 08:41:27;;;;;;;9.27;4.10;;;128.70;2150.40;;;;;;4824585;29;20113;-72
2021/04/06 08:44:01;;;;;;;9.80;4.63;;;128.80;2150.40;;;;;;4822304;29;20697;-73
2021/04/06 08:46:47;;;;;;;;;;;128.90;2124.80;;;;;;4824138;29;20369;-71
2021/04/06 08:49:25;;;;;;;9.10;3.40;;;128.80;2073.60;;;;;;4823408;29;20318;-72
2021/04/06 08:51:58;;;;;;;7.30;3.20;;;128.80;2099.20;;;;;;4820587;29;20057;-70
2021/04/06 08:54:23;;;;;;;5.68;3.15;;;153.60;2124.80;;;;;;4815123;29;20035;-70
2021/04/06 08:56:56;;;;;;;7.47;3.00;;;128.80;2124.80;;;;;;4815991;29;20488;-69
2021/04/06 08:59:37;;;;;;;5.18;3.03;;;128.90;2124.80;;;;;;4824562;29;20034;-74
2021/04/06 09:02:18;;;;;;;10.35;3.25;;;153.60;2150.40;;;;;;4821263;29;20045;-72
2021/04/06 09:04:47;;;;;;;12.95;3.58;;;153.70;2073.60;;;;;;4814715;29;20034;-72
2021/04/06 09:07:22;;;;;;;9.85;3.80;;;153.60;2099.20;;;;;;4826903;29;20389;-71
2021/04/06 09:09:50;;;;;;;9.10;3.88;;;153.80;2099.20;;;;;;4811515;29;20042;-72
2021/04/06 09:12:16;;;;;;;7.30;3.67;;;153.80;2073.60;;;;;;4822285;29;20041;-72
2021/04/06 09:14:42;;;;;;;7.32;3.70;;;153.70;2099.20;;;;;;4824000;29;20022;-71
2021/04/06 09:17:08;;;;;;;6.72;3.33;;;128.90;2150.40;;;;;;4822680;29;20038;-72
2021/04/06 09:19:37;;;;;;;7.57;3.55;;;128.90;2124.80;;;;;;4821912;29;20549;-72
2021/04/06 09:22:06;;;;;;;5.63;3.35;;;128.80;2176.00;;;;;;4816789;29;20083;-71
2021/04/06 09:24:32;;;;;;;7.80;3.28;;;128.50;2201.60;;;;;;4817375;29;20083;-72
2021/04/06 09:26:59;;;;;;;8.05;3.70;;;128.50;2227.20;;;;;;4819551;29;20033;-73
2021/04/06 09:29:31;;;;;;;6.53;3.10;;;128.50;2201.60;;;;;;4814827;29;20409;-73
2021/04/06 09:32:11;;;;;;;7.32;3.03;;;128.50;2201.60;;;;;;4820992;29;20037;-73
2021/04/06 09:34:45;;;;;;;10.52;4.22;;;128.40;2252.80;;;;;;4812341;29;20029;-71
2021/04/06 09:37:16;;;;;;;16.90;6.95;;;128.30;2252.80;;;;;;4803092;29;20417;-71
2021/04/06 09:39:45;;;;;;;9.15;4.80;;;128.00;2252.80;;;;;;4821455;29;20046;-72
2021/04/06 09:42:11;;;;;;;14.23;6.40;;;128.10;2252.80;;;;;;4818179;29;20022;-72
2021/04/06 09:44:40;;;;;;;13.18;6.13;;;128.20;2252.80;;;;;;4822003;29;20062;-70
2021/04/06 09:47:12;;;;;;;19.67;8.55;;;128.30;2252.80;;;;;;4815279;29;20392;-75
2021/04/06 09:49:43;;;;;;;22.85;8.02;;;128.20;2252.80;;;;;;4818151;29;20070;-71
2021/04/06 09:52:21;;;;;;;14.13;6.75;;;128.10;2252.80;;;;;;4822732;29;20042;-71
2021/04/06 09:55:09;;;;;;;12.80;4.95;;;128.10;2252.80;;;;;;4823191;29;20041;-71
2021/04/06 09:57:41;;;;;;;7.70;4.70;;;128.00;2252.80;;;;;;4824291;29;20494;-71
2021/04/06 10:00:13;;;;;;;8.20;4.70;;;128.10;2252.80;;;;;;4821591;29;20031;-71
2021/04/06 10:02:39;;;;;;;8.32;4.40;;;128.30;2252.80;;;;;;4814061;29;20027;-71
2021/04/06 10:05:20;;;;;;;7.93;4.50;;;128.50;2252.80;;;;;;4821303;29;20058;-71
2021/04/06 10:07:49;;;;;;;11.45;4.75;;;128.50;2252.80;;;;;;4820472;29;20026;-72
2021/04/06 10:10:23;;;;;;;11.05;4.88;;;128.50;2252.80;;;;;;4819959;29;20438;-71
2021/04/06 10:12:51;;;;;;;8.98;5.10;;;153.60;2252.80;;;;;;4819613;29;20026;-72
2021/04/06 10:15:20;;;;;;;12.27;6.13;;;128.80;2252.80;;;;;;4809319;29;20031;-71
2021/04/06 10:17:46;;;;;;;12.82;5.88;;;128.60;2252.80;;;;;;4806237;29;20510;-71
2021/04/06 10:20:14;;;;;;;28.27;13.07;;;128.40;2252.80;;;;;;4816921;29;20135;-70
2021/04/06 10:22:44;;;;;;;216.40;132.00;;;128.50;2252.80;;;;;;4870792;24;20058;-66
2021/04/06 10:25:11;;;;;;;5.38;3.30;;;128.50;2252.80;;;;;;4834027;29;20029;-71
2021/04/06 10:27:45;;;;;;;5.78;3.15;;;128.50;2252.80;;;;;;4834126;29;20058;-69
2021/04/06 10:30:31;;;;;;;6.88;3.20;;;128.40;2252.80;;;;;;4817248;29;20102;-72
2021/04/06 10:33:27;;;;;;;7.75;3.25;;;128.20;2252.80;;;;;;4815927;29;20033;-71
2021/04/06 10:36:01;;;;;;;7.93;3.13;;;128.10;2252.80;;;;;;4812778;29;20069;-73
2021/04/06 10:38:31;;;;;;;9.55;4.22;;;103.30;2227.20;;;;;;4818998;29;20035;-68
2021/04/06 10:41:03;;;;;;;7.28;4.20;;;103.10;2227.20;;;;;;4816985;29;20050;-71
2021/04/06 10:43:29;;;;;;;9.95;4.55;;;103.20;2227.20;;;;;;4807974;29;20027;-68
2021/04/06 10:46:00;;;;;;;11.52;5.68;;;128.10;2252.80;;;;;;4823062;29;20057;-70
2021/04/06 10:48:28;;;;;;;11.20;5.57;;;128.20;2252.80;;;;;;4812331;29;20075;-69
2021/04/06 10:51:16;;;;;;;14.10;5.82;;;128.40;2252.80;;;;;;4822209;29;20375;-69
2021/04/06 10:53:44;;;;;;;10.68;5.47;;;128.90;2252.80;;;;;;4820882;29;20106;-70
2021/04/06 10:56:14;;;;;;;14.50;8.85;;;128.90;2252.80;;;;;;4822311;29;20037;-72
2021/04/06 10:58:44;;;;;;;7.72;4.65;;;128.90;2252.80;;;;;;4806205;29;20039;-71
2021/04/06 11:01:12;;;;;;;11.82;4.32;;;128.80;2252.80;;;;;;4823262;29;20039;-72
2021/04/06 11:03:52;;;;;;;6.90;3.92;;;153.60;2252.80;;;;;;4819925;29;20046;-72
2021/04/06 11:06:30;;;;;;;9.80;4.47;;;128.80;2252.80;;;;;;4798972;29;20451;-70
2021/04/06 11:08:57;;;;;;;9.43;4.25;;;;;;;;;;4822711;29;20485;-71
2021/04/06 11:11:23;;;;;;;6.88;4.25;;;;;;;;;;4822883;29;20034;-72
2021/04/06 11:13:50;;;;;;;9.90;4.20;;;;;;;;;;4808975;29;20023;-69
2021/04/06 11:16:16;;;;;;;10.23;4.72;;;153.70;2252.80;;;;;;4822339;29;20041;-69
2021/04/06 11:18:54;;;;;;;6.28;4.13;;;128.70;2252.80;;;;;;4825836;29;20075;-69
2021/04/06 11:21:19;;;;;;;8.75;4.03;;;128.50;2252.80;;;;;;4822741;29;20046;-73
2021/04/06 11:23:45;;;;;;;9.13;3.85;;;;;;;;;;4826947;29;20076;-69
2021/04/06 11:26:11;;;;;;;8.98;4.25;;;128.90;2252.80;;;;;;4828952;29;20393;-72
2021/04/06 11:28:37;;;;;;;9.32;4.18;;;128.70;2252.80;;;;;;4826802;29;20035;-70
2021/04/06 11:31:03;;;;;;;6.05;4.05;;;128.60;2252.80;;;;;;4816297;29;20046;-72
2021/04/06 11:33:29;;;;;;;9.05;4.03;;;128.50;2252.80;;;;;;4826731;29;20118;-71
2021/04/06 11:55:47;;;;;;;8.98;4.47;;;153.90;2252.80;;;;;;4775066;24;20060;-68
2021/04/06 11:58:12;;;;;;;7.30;4.40;;;153.70;2252.80;;;;;;4859139;29;20101;-77
2021/04/06 12:00:38;;;;;;;10.90;4.97;;;153.70;2252.80;;;;;;4866979;29;20037;-84
2021/04/06 12:03:04;;;;;;;9.80;5.18;;;153.70;2252.80;;;;;;4864912;29;20033;-85
2021/04/06 12:05:30;;;;;;;13.30;5.22;;;153.70;2252.80;;;;;;4862705;29;20045;-85
2021/04/06 12:07:56;;;;;;;9.25;4.88;;;154.10;2252.80;;;;;;4862182;29;20086;-67
2021/04/06 12:10:22;;;;;;;8.38;5.35;;;154.30;2252.80;;;;;;4861099;29;20473;-86
2021/04/06 12:12:49;;;;;;;9.88;5.20;;;179.20;2252.80;;;;;;4854827;29;20132;-87
2021/04/06 12:15:15;;;;;;;8.30;4.72;;;154.40;2252.80;;;;;;4862116;29;20089;-88
2021/04/06 12:17:41;;;;;;;10.13;5.50;;;154.40;2252.80;;;;;;4862047;29;20026;-67
2021/04/06 12:20:07;;;;;;;9.00;4.68;;;;;;;;;;4861833;29;20116;-87
2021/04/06 12:22:34;;;;;;;9.77;5.13;;;154.10;2252.80;;;;;;4862287;29;20036;-68
2021/04/06 12:25:00;;;;;;;10.52;4.93;;;153.90;2252.80;;;;;;4860977;29;20082;-85
2021/04/06 12:27:26;;;;;;;8.15;5.13;;;154.10;2252.80;;;;;;4861638;29;20113;-87
2021/04/06 12:29:52;;;;;;;6.07;4.32;;;154.20;2252.80;;;;;;4855239;29;20079;-67
2021/04/06 12:32:18;;;;;;;10.02;4.60;;;154.20;2252.80;;;;;;4859699;29;20025;-70
2021/04/06 12:34:44;;;;;;;7.88;4.40;;;;;;;;;;4861387;29;20069;-72
2021/04/06 12:37:09;;;;;;;10.57;5.15;;;154.50;2252.80;;;;;;4843636;29;20063;-71
2021/04/06 12:39:35;;;;;;;9.38;5.50;;;154.20;2252.80;;;;;;4860084;29;20476;-70
2021/04/06 12:42:01;;;;;;;7.82;5.30;;;154.30;2252.80;;;;;;4861012;29;20029;-67
2021/04/06 12:44:27;;;;;;;11.23;4.53;;;154.20;2252.80;;;;;;4861045;29;20021;-73
2021/04/06 12:46:53;;;;;;;9.63;5.22;;;154.00;2252.80;;;;;;4860872;29;20400;-71
2021/04/06 12:49:26;;;;;;;6.50;4.90;;;153.90;2252.80;;;;;;4852679;29;20068;-73
2021/04/06 12:52:06;;;;;;;11.60;6.45;;;153.70;2252.80;;;;;;4840896;29;20048;-72
2021/04/06 12:54:32;;;;;;;11.18;6.22;;;153.70;2252.80;;;;;;4840769;29;20046;-67
2021/04/06 12:56:57;;;;;;;11.70;5.45;;;153.70;2252.80;;;;;;4842731;29;20579;-70
2021/04/06 12:59:23;;;;;;;10.20;6.38;;;153.70;2252.80;;;;;;4836530;29;20378;-68
2021/04/06 13:01:49;;;;;;;16.25;7.70;;;153.60;2252.80;;;;;;4842486;29;20090;-70
2021/04/06 13:04:15;;;;;;;22.52;11.23;;;128.90;2252.80;;;;;;4843631;29;20089;-68